sensor_id;sensor_type;location;lat;lon;timestamp;temperature;humidity
67901;DHT22;54700;51.796;10.956;2023-04-06T00:01:11;3.10;55.00
67901;DHT22;54700;51.796;10.956;2023-04-06T00:03:38;3.10;54.80
67901;DHT22;54700;51.796;10.956;2023-04-06T00:06:07;3.10;54.60
67901;DHT22;54700;51.796;10.956;2023-04-06T00:08:34;3.20;54.70
67901;DHT22;54700;51.796;10.956;2023-04-06T00:11:03;3.20;54.30
67901;DHT22;54700;51.796;10.956;2023-04-06T00:13:33;3.30;54.50
67901;DHT22;54700;51.796;10.956;2023-04-06T00:16:02;3.30;54.30
67901;DHT22;54700;51.796;10.956;2023-04-06T00:18:33;3.30;54.50
67901;DHT22;54700;51.796;10.956;2023-04-06T00:21:03;3.30;54.30
67901;DHT22;54700;51.796;10.956;2023-04-06T00:23:31;3.30;54.50
67901;DHT22;54700;51.796;10.956;2023-04-06T00:25:58;3.30;54.40
67901;DHT22;54700;51.796;10.956;2023-04-06T00:28:35;3.30;54.40
67901;DHT22;54700;51.796;10.956;2023-04-06T00:31:08;3.20;54.50
67901;DHT22;54700;51.796;10.956;2023-04-06T00:33:36;3.20;54.30
67901;DHT22;54700;51.796;10.956;2023-04-06T00:36:03;3.20;54.40
67901;DHT22;54700;51.796;10.956;2023-04-06T00:38:33;3.20;54.40
67901;DHT22;54700;51.796;10.956;2023-04-06T00:41:04;3.20;54.50
67901;DHT22;54700;51.796;10.956;2023-04-06T00:43:32;3.20;54.40
67901;DHT22;54700;51.796;10.956;2023-04-06T00:46:00;3.20;54.50
67901;DHT22;54700;51.796;10.956;2023-04-06T00:48:27;3.20;53.90
67901;DHT22;54700;51.796;10.956;2023-04-06T00:50:56;3.20;54.00
67901;DHT22;54700;51.796;10.956;2023-04-06T00:53:24;3.20;54.20
67901;DHT22;54700;51.796;10.956;2023-04-06T00:55:51;3.20;54.40
67901;DHT22;54700;51.796;10.956;2023-04-06T00:58:20;3.20;53.80
67901;DHT22;54700;51.796;10.956;2023-04-06T01:00:52;3.20;54.40
67901;DHT22;54700;51.796;10.956;2023-04-06T01:03:20;3.10;54.10
67901;DHT22;54700;51.796;10.956;2023-04-06T01:05:48;3.20;53.60
67901;DHT22;54700;51.796;10.956;2023-04-06T01:08:17;3.20;53.70
67901;DHT22;54700;51.796;10.956;2023-04-06T01:10:46;3.20;53.70
67901;DHT22;54700;51.796;10.956;2023-04-06T01:13:14;3.20;53.60
67901;DHT22;54700;51.796;10.956;2023-04-06T01:15:43;3.20;53.60
67901;DHT22;54700;51.796;10.956;2023-04-06T01:18:11;3.10;54.20
67901;DHT22;54700;51.796;10.956;2023-04-06T01:20:41;3.10;54.30
67901;DHT22;54700;51.796;10.956;2023-04-06T01:23:12;3.00;54.60
67901;DHT22;54700;51.796;10.956;2023-04-06T01:25:43;2.90;54.90
67901;DHT22;54700;51.796;10.956;2023-04-06T01:28:10;2.90;55.00
67901;DHT22;54700;51.796;10.956;2023-04-06T01:30:37;2.90;55.10
67901;DHT22;54700;51.796;10.956;2023-04-06T01:33:05;2.90;54.90
67901;DHT22;54700;51.796;10.956;2023-04-06T01:35:34;2.80;55.20
67901;DHT22;54700;51.796;10.956;2023-04-06T01:38:01;2.80;55.20
67901;DHT22;54700;51.796;10.956;2023-04-06T01:40:30;2.80;55.40
67901;DHT22;54700;51.796;10.956;2023-04-06T01:42:58;2.80;55.50
67901;DHT22;54700;51.796;10.956;2023-04-06T01:45:28;2.70;55.50
67901;DHT22;54700;51.796;10.956;2023-04-06T01:47:56;2.70;55.40
67901;DHT22;54700;51.796;10.956;2023-04-06T01:50:23;2.70;55.50
67901;DHT22;54700;51.796;10.956;2023-04-06T01:52:51;2.70;55.40
67901;DHT22;54700;51.796;10.956;2023-04-06T01:55:18;2.70;56.70
67901;DHT22;54700;51.796;10.956;2023-04-06T01:57:47;2.70;55.70
67901;DHT22;54700;51.796;10.956;2023-04-06T02:00:14;2.60;55.70
67901;DHT22;54700;51.796;10.956;2023-04-06T02:02:45;2.60;55.90
67901;DHT22;54700;51.796;10.956;2023-04-06T02:05:15;2.60;55.90
67901;DHT22;54700;51.796;10.956;2023-04-06T02:07:44;2.50;56.10
67901;DHT22;54700;51.796;10.956;2023-04-06T02:10:12;2.50;56.20
67901;DHT22;54700;51.796;10.956;2023-04-06T02:12:41;2.50;56.60
67901;DHT22;54700;51.796;10.956;2023-04-06T02:15:12;2.50;56.80
67901;DHT22;54700;51.796;10.956;2023-04-06T02:17:39;2.40;56.70
67901;DHT22;54700;51.796;10.956;2023-04-06T02:20:12;2.30;57.10
67901;DHT22;54700;51.796;10.956;2023-04-06T02:22:39;2.30;57.60
67901;DHT22;54700;51.796;10.956;2023-04-06T02:25:07;2.30;58.00
67901;DHT22;54700;51.796;10.956;2023-04-06T02:27:35;2.20;58.50
67901;DHT22;54700;51.796;10.956;2023-04-06T02:30:02;2.10;58.70
67901;DHT22;54700;51.796;10.956;2023-04-06T02:32:31;2.10;58.90
67901;DHT22;54700;51.796;10.956;2023-04-06T02:34:59;2.00;58.80
67901;DHT22;54700;51.796;10.956;2023-04-06T02:37:26;2.00;59.00
67901;DHT22;54700;51.796;10.956;2023-04-06T02:39:53;2.00;59.10
67901;DHT22;54700;51.796;10.956;2023-04-06T02:42:20;2.00;59.10
67901;DHT22;54700;51.796;10.956;2023-04-06T02:44:47;1.90;59.20
67901;DHT22;54700;51.796;10.956;2023-04-06T02:47:14;1.80;60.30
67901;DHT22;54700;51.796;10.956;2023-04-06T02:49:43;1.80;60.60
67901;DHT22;54700;51.796;10.956;2023-04-06T02:52:10;1.70;61.20
67901;DHT22;54700;51.796;10.956;2023-04-06T02:54:36;1.70;61.40
67901;DHT22;54700;51.796;10.956;2023-04-06T02:57:05;1.60;61.60
67901;DHT22;54700;51.796;10.956;2023-04-06T02:59:32;1.50;61.80
67901;DHT22;54700;51.796;10.956;2023-04-06T03:01:59;1.50;62.40
67901;DHT22;54700;51.796;10.956;2023-04-06T03:04:26;1.40;63.00
67901;DHT22;54700;51.796;10.956;2023-04-06T03:06:56;1.30;62.90
67901;DHT22;54700;51.796;10.956;2023-04-06T03:09:23;1.20;63.10
67901;DHT22;54700;51.796;10.956;2023-04-06T03:11:50;1.20;63.50
67901;DHT22;54700;51.796;10.956;2023-04-06T03:14:17;1.10;64.00
67901;DHT22;54700;51.796;10.956;2023-04-06T03:16:46;1.00;64.20
67901;DHT22;54700;51.796;10.956;2023-04-06T03:19:15;0.90;63.90
67901;DHT22;54700;51.796;10.956;2023-04-06T03:21:44;0.90;64.10
67901;DHT22;54700;51.796;10.956;2023-04-06T03:24:13;0.90;64.30
67901;DHT22;54700;51.796;10.956;2023-04-06T03:26:41;0.90;65.80
67901;DHT22;54700;51.796;10.956;2023-04-06T03:29:11;0.90;64.90
67901;DHT22;54700;51.796;10.956;2023-04-06T03:31:38;0.90;64.40
67901;DHT22;54700;51.796;10.956;2023-04-06T03:34:05;0.90;64.00
67901;DHT22;54700;51.796;10.956;2023-04-06T03:36:35;1.00;63.70
67901;DHT22;54700;51.796;10.956;2023-04-06T03:39:02;1.00;63.60
67901;DHT22;54700;51.796;10.956;2023-04-06T03:41:37;1.00;64.10
67901;DHT22;54700;51.796;10.956;2023-04-06T03:44:06;1.00;64.90
67901;DHT22;54700;51.796;10.956;2023-04-06T03:46:33;1.00;65.20
67901;DHT22;54700;51.796;10.956;2023-04-06T03:49:00;0.90;65.60
67901;DHT22;54700;51.796;10.956;2023-04-06T03:51:47;0.90;66.20
67901;DHT22;54700;51.796;10.956;2023-04-06T03:54:17;0.90;66.50
67901;DHT22;54700;51.796;10.956;2023-04-06T03:56:48;0.90;66.80
67901;DHT22;54700;51.796;10.956;2023-04-06T03:59:21;0.90;66.60
67901;DHT22;54700;51.796;10.956;2023-04-06T04:01:56;0.80;66.90
67901;DHT22;54700;51.796;10.956;2023-04-06T04:04:23;0.80;65.10
67901;DHT22;54700;51.796;10.956;2023-04-06T04:07:05;0.90;65.60
67901;DHT22;54700;51.796;10.956;2023-04-06T04:09:32;0.80;64.70
67901;DHT22;54700;51.796;10.956;2023-04-06T04:12:01;0.80;65.00
67901;DHT22;54700;51.796;10.956;2023-04-06T04:14:28;0.80;65.30
67901;DHT22;54700;51.796;10.956;2023-04-06T04:16:56;0.70;65.60
67901;DHT22;54700;51.796;10.956;2023-04-06T04:19:23;0.70;66.50
67901;DHT22;54700;51.796;10.956;2023-04-06T04:21:51;0.60;67.00
67901;DHT22;54700;51.796;10.956;2023-04-06T04:24:20;0.60;67.50
67901;DHT22;54700;51.796;10.956;2023-04-06T04:26:51;0.50;67.90
67901;DHT22;54700;51.796;10.956;2023-04-06T04:29:20;0.40;69.20
67901;DHT22;54700;51.796;10.956;2023-04-06T04:31:50;0.40;68.90
67901;DHT22;54700;51.796;10.956;2023-04-06T04:34:17;0.40;69.10
67901;DHT22;54700;51.796;10.956;2023-04-06T04:36:46;0.30;69.20
67901;DHT22;54700;51.796;10.956;2023-04-06T04:39:14;0.30;70.30
67901;DHT22;54700;51.796;10.956;2023-04-06T04:41:45;0.30;70.00
67901;DHT22;54700;51.796;10.956;2023-04-06T04:44:13;0.30;70.50
67901;DHT22;54700;51.796;10.956;2023-04-06T04:46:42;0.30;71.30
67901;DHT22;54700;51.796;10.956;2023-04-06T04:49:18;0.30;70.80
67901;DHT22;54700;51.796;10.956;2023-04-06T04:51:48;0.30;70.90
67901;DHT22;54700;51.796;10.956;2023-04-06T04:54:18;0.30;70.50
67901;DHT22;54700;51.796;10.956;2023-04-06T04:56:46;0.40;71.30
67901;DHT22;54700;51.796;10.956;2023-04-06T04:59:18;0.40;72.30
67901;DHT22;54700;51.796;10.956;2023-04-06T05:01:54;0.50;72.10
67901;DHT22;54700;51.796;10.956;2023-04-06T05:04:26;0.50;72.20
67901;DHT22;54700;51.796;10.956;2023-04-06T05:07:01;0.50;72.70
67901;DHT22;54700;51.796;10.956;2023-04-06T05:09:42;0.50;71.90
67901;DHT22;54700;51.796;10.956;2023-04-06T05:12:14;0.60;71.00
67901;DHT22;54700;51.796;10.956;2023-04-06T05:14:50;0.60;71.80
67901;DHT22;54700;51.796;10.956;2023-04-06T05:17:42;0.70;71.40
67901;DHT22;54700;51.796;10.956;2023-04-06T05:20:19;0.80;69.50
67901;DHT22;54700;51.796;10.956;2023-04-06T05:22:58;0.80;70.30
67901;DHT22;54700;51.796;10.956;2023-04-06T05:25:30;0.90;69.50
67901;DHT22;54700;51.796;10.956;2023-04-06T05:28:07;1.00;67.80
67901;DHT22;54700;51.796;10.956;2023-04-06T05:30:44;1.00;68.10
67901;DHT22;54700;51.796;10.956;2023-04-06T05:33:19;1.10;67.60
67901;DHT22;54700;51.796;10.956;2023-04-06T05:35:51;1.10;67.80
67901;DHT22;54700;51.796;10.956;2023-04-06T05:38:39;1.20;69.00
67901;DHT22;54700;51.796;10.956;2023-04-06T05:41:15;1.30;67.70
67901;DHT22;54700;51.796;10.956;2023-04-06T05:43:57;1.40;65.70
67901;DHT22;54700;51.796;10.956;2023-04-06T05:46:40;1.50;64.40
67901;DHT22;54700;51.796;10.956;2023-04-06T05:52:00;1.70;63.40
67901;DHT22;54700;51.796;10.956;2023-04-06T05:55:01;1.80;62.30
67901;DHT22;54700;51.796;10.956;2023-04-06T05:58:00;1.90;62.60
67901;DHT22;54700;51.796;10.956;2023-04-06T06:04:05;2.10;62.60
67901;DHT22;54700;51.796;10.956;2023-04-06T06:10:04;2.30;62.40
67901;DHT22;54700;51.796;10.956;2023-04-06T06:13:02;2.30;62.50
67901;DHT22;54700;51.796;10.956;2023-04-06T06:15:30;2.40;62.10
67901;DHT22;54700;51.796;10.956;2023-04-06T06:18:12;2.50;62.10
67901;DHT22;54700;51.796;10.956;2023-04-06T06:20:43;2.60;61.80
67901;DHT22;54700;51.796;10.956;2023-04-06T06:23:12;2.60;61.50
67901;DHT22;54700;51.796;10.956;2023-04-06T06:25:45;2.70;61.10
67901;DHT22;54700;51.796;10.956;2023-04-06T06:28:13;2.70;61.00
67901;DHT22;54700;51.796;10.956;2023-04-06T06:30:45;2.80;60.80
67901;DHT22;54700;51.796;10.956;2023-04-06T06:33:27;2.90;60.80
67901;DHT22;54700;51.796;10.956;2023-04-06T06:35:57;3.00;60.90
67901;DHT22;54700;51.796;10.956;2023-04-06T06:38:29;3.10;60.50
67901;DHT22;54700;51.796;10.956;2023-04-06T06:40:59;3.10;60.20
67901;DHT22;54700;51.796;10.956;2023-04-06T06:43:30;3.30;59.90
67901;DHT22;54700;51.796;10.956;2023-04-06T06:46:03;3.30;59.70
67901;DHT22;54700;51.796;10.956;2023-04-06T06:48:43;3.40;59.10
67901;DHT22;54700;51.796;10.956;2023-04-06T06:51:11;3.50;58.40
67901;DHT22;54700;51.796;10.956;2023-04-06T06:53:46;3.50;58.10
67901;DHT22;54700;51.796;10.956;2023-04-06T06:56:19;3.60;58.00
67901;DHT22;54700;51.796;10.956;2023-04-06T06:58:48;3.80;57.80
67901;DHT22;54700;51.796;10.956;2023-04-06T07:01:17;3.80;58.40
67901;DHT22;54700;51.796;10.956;2023-04-06T07:03:45;3.90;57.20
67901;DHT22;54700;51.796;10.956;2023-04-06T07:06:13;4.00;57.00
67901;DHT22;54700;51.796;10.956;2023-04-06T07:08:41;4.10;56.70
67901;DHT22;54700;51.796;10.956;2023-04-06T07:11:17;4.20;56.40
67901;DHT22;54700;51.796;10.956;2023-04-06T07:13:58;4.20;56.00
67901;DHT22;54700;51.796;10.956;2023-04-06T07:16:28;4.30;56.20
67901;DHT22;54700;51.796;10.956;2023-04-06T07:19:10;4.30;55.50
67901;DHT22;54700;51.796;10.956;2023-04-06T07:22:01;4.40;55.60
67901;DHT22;54700;51.796;10.956;2023-04-06T07:27:37;4.60;55.60
67901;DHT22;54700;51.796;10.956;2023-04-06T07:30:09;4.60;55.70
67901;DHT22;54700;51.796;10.956;2023-04-06T07:32:53;4.70;55.70
67901;DHT22;54700;51.796;10.956;2023-04-06T07:35:24;4.80;55.40
67901;DHT22;54700;51.796;10.956;2023-04-06T07:38:03;4.80;55.30
67901;DHT22;54700;51.796;10.956;2023-04-06T07:40:51;4.90;54.90
67901;DHT22;54700;51.796;10.956;2023-04-06T07:43:28;5.00;54.80
67901;DHT22;54700;51.796;10.956;2023-04-06T07:45:56;5.00;54.40
67901;DHT22;54700;51.796;10.956;2023-04-06T07:48:28;5.10;53.80
67901;DHT22;54700;51.796;10.956;2023-04-06T07:51:16;5.20;53.50
67901;DHT22;54700;51.796;10.956;2023-04-06T07:53:53;5.20;53.90
67901;DHT22;54700;51.796;10.956;2023-04-06T07:56:26;5.40;53.70
67901;DHT22;54700;51.796;10.956;2023-04-06T07:58:57;5.50;53.60
67901;DHT22;54700;51.796;10.956;2023-04-06T08:01:30;5.50;52.70
67901;DHT22;54700;51.796;10.956;2023-04-06T08:04:02;5.60;51.90
67901;DHT22;54700;51.796;10.956;2023-04-06T08:06:34;5.80;51.20
67901;DHT22;54700;51.796;10.956;2023-04-06T08:09:02;5.90;50.00
67901;DHT22;54700;51.796;10.956;2023-04-06T08:11:39;6.00;50.00
67901;DHT22;54700;51.796;10.956;2023-04-06T08:14:21;6.10;50.20
67901;DHT22;54700;51.796;10.956;2023-04-06T08:37:34;6.40;53.60
67901;DHT22;54700;51.796;10.956;2023-04-06T08:40:02;6.50;53.10
67901;DHT22;54700;51.796;10.956;2023-04-06T08:42:32;6.40;52.90
67901;DHT22;54700;51.796;10.956;2023-04-06T08:45:05;6.40;53.40
67901;DHT22;54700;51.796;10.956;2023-04-06T08:47:36;6.60;49.90
67901;DHT22;54700;51.796;10.956;2023-04-06T08:50:09;6.70;48.30
67901;DHT22;54700;51.796;10.956;2023-04-06T08:59:35;7.20;47.00
67901;DHT22;54700;51.796;10.956;2023-04-06T09:02:10;7.20;45.50
67901;DHT22;54700;51.796;10.956;2023-04-06T09:04:42;7.30;45.70
67901;DHT22;54700;51.796;10.956;2023-04-06T09:07:14;7.30;45.70
67901;DHT22;54700;51.796;10.956;2023-04-06T09:09:43;7.40;45.30
67901;DHT22;54700;51.796;10.956;2023-04-06T09:12:22;7.40;44.60
67901;DHT22;54700;51.796;10.956;2023-04-06T09:14:50;7.50;44.40
67901;DHT22;54700;51.796;10.956;2023-04-06T09:17:22;7.50;44.30
67901;DHT22;54700;51.796;10.956;2023-04-06T09:20:00;7.60;44.20
67901;DHT22;54700;51.796;10.956;2023-04-06T09:22:36;7.60;44.70
67901;DHT22;54700;51.796;10.956;2023-04-06T09:25:09;7.70;43.90
67901;DHT22;54700;51.796;10.956;2023-04-06T09:28:02;7.70;43.90
67901;DHT22;54700;51.796;10.956;2023-04-06T09:30:53;7.60;43.90
67901;DHT22;54700;51.796;10.956;2023-04-06T09:33:27;7.70;43.20
67901;DHT22;54700;51.796;10.956;2023-04-06T09:36:30;7.80;43.70
67901;DHT22;54700;51.796;10.956;2023-04-06T09:39:04;7.90;44.30
67901;DHT22;54700;51.796;10.956;2023-04-06T09:41:40;7.90;44.10
67901;DHT22;54700;51.796;10.956;2023-04-06T09:44:25;8.00;44.20
67901;DHT22;54700;51.796;10.956;2023-04-06T09:46:54;8.00;43.50
67901;DHT22;54700;51.796;10.956;2023-04-06T09:49:37;8.10;42.90
67901;DHT22;54700;51.796;10.956;2023-04-06T09:52:17;8.20;42.70
67901;DHT22;54700;51.796;10.956;2023-04-06T09:54:49;8.20;42.00
67901;DHT22;54700;51.796;10.956;2023-04-06T09:57:29;8.20;41.60
67901;DHT22;54700;51.796;10.956;2023-04-06T10:00:20;8.20;41.80
67901;DHT22;54700;51.796;10.956;2023-04-06T10:03:02;8.30;42.90
67901;DHT22;54700;51.796;10.956;2023-04-06T10:05:53;8.40;42.60
67901;DHT22;54700;51.796;10.956;2023-04-06T10:08:35;8.40;42.50
67901;DHT22;54700;51.796;10.956;2023-04-06T10:11:13;8.40;42.90
67901;DHT22;54700;51.796;10.956;2023-04-06T10:13:56;8.50;42.40
67901;DHT22;54700;51.796;10.956;2023-04-06T10:16:39;8.50;43.10
67901;DHT22;54700;51.796;10.956;2023-04-06T10:19:27;8.50;42.70
67901;DHT22;54700;51.796;10.956;2023-04-06T10:22:04;8.60;42.50
67901;DHT22;54700;51.796;10.956;2023-04-06T10:24:59;8.50;43.00
67901;DHT22;54700;51.796;10.956;2023-04-06T10:27:58;8.50;42.00
67901;DHT22;54700;51.796;10.956;2023-04-06T10:30:42;8.60;42.00
67901;DHT22;54700;51.796;10.956;2023-04-06T10:33:32;8.60;41.40
67901;DHT22;54700;51.796;10.956;2023-04-06T10:36:22;8.70;42.60
67901;DHT22;54700;51.796;10.956;2023-04-06T10:39:02;8.70;41.30
67901;DHT22;54700;51.796;10.956;2023-04-06T10:41:58;8.70;41.80
67901;DHT22;54700;51.796;10.956;2023-04-06T10:44:49;8.70;41.50
67901;DHT22;54700;51.796;10.956;2023-04-06T10:53:37;8.90;41.60
67901;DHT22;54700;51.796;10.956;2023-04-06T10:56:24;9.00;40.90
67901;DHT22;54700;51.796;10.956;2023-04-06T10:58:59;9.00;40.10
67901;DHT22;54700;51.796;10.956;2023-04-06T11:01:32;9.00;39.70
67901;DHT22;54700;51.796;10.956;2023-04-06T11:04:21;9.10;40.70
67901;DHT22;54700;51.796;10.956;2023-04-06T11:07:22;9.10;39.60
67901;DHT22;54700;51.796;10.956;2023-04-06T11:10:04;9.10;40.00
67901;DHT22;54700;51.796;10.956;2023-04-06T11:12:54;9.10;40.10
67901;DHT22;54700;51.796;10.956;2023-04-06T11:15:33;9.10;40.60
67901;DHT22;54700;51.796;10.956;2023-04-06T11:18:28;9.10;39.80
67901;DHT22;54700;51.796;10.956;2023-04-06T11:20:57;9.20;40.40
67901;DHT22;54700;51.796;10.956;2023-04-06T11:23:30;9.30;40.30
67901;DHT22;54700;51.796;10.956;2023-04-06T11:26:09;9.30;40.00
67901;DHT22;54700;51.796;10.956;2023-04-06T11:28:58;9.30;40.00
67901;DHT22;54700;51.796;10.956;2023-04-06T11:31:45;9.40;39.80
67901;DHT22;54700;51.796;10.956;2023-04-06T11:34:16;9.40;39.70
67901;DHT22;54700;51.796;10.956;2023-04-06T11:36:47;9.40;40.10
67901;DHT22;54700;51.796;10.956;2023-04-06T11:39:38;9.40;38.80
67901;DHT22;54700;51.796;10.956;2023-04-06T11:42:25;9.40;40.00
67901;DHT22;54700;51.796;10.956;2023-04-06T11:44:59;9.40;37.60
67901;DHT22;54700;51.796;10.956;2023-04-06T11:47:27;9.40;38.20
67901;DHT22;54700;51.796;10.956;2023-04-06T11:50:04;9.40;38.60
67901;DHT22;54700;51.796;10.956;2023-04-06T11:52:45;9.50;39.30
67901;DHT22;54700;51.796;10.956;2023-04-06T11:55:19;9.50;39.60
67901;DHT22;54700;51.796;10.956;2023-04-06T11:57:47;9.60;39.80
67901;DHT22;54700;51.796;10.956;2023-04-06T12:00:15;9.70;39.60
67901;DHT22;54700;51.796;10.956;2023-04-06T12:02:46;9.70;38.90
67901;DHT22;54700;51.796;10.956;2023-04-06T12:05:14;9.70;39.30
67901;DHT22;54700;51.796;10.956;2023-04-06T12:07:51;9.70;40.00
67901;DHT22;54700;51.796;10.956;2023-04-06T12:10:31;9.70;40.00
67901;DHT22;54700;51.796;10.956;2023-04-06T12:13:05;9.70;40.40
67901;DHT22;54700;51.796;10.956;2023-04-06T12:15:33;9.70;39.90
67901;DHT22;54700;51.796;10.956;2023-04-06T12:18:12;9.70;39.80
67901;DHT22;54700;51.796;10.956;2023-04-06T12:20:50;9.60;40.30
67901;DHT22;54700;51.796;10.956;2023-04-06T12:23:19;9.70;41.70
67901;DHT22;54700;51.796;10.956;2023-04-06T12:25:52;9.60;40.90
67901;DHT22;54700;51.796;10.956;2023-04-06T12:28:22;9.60;41.70
67901;DHT22;54700;51.796;10.956;2023-04-06T12:30:52;9.70;41.50
67901;DHT22;54700;51.796;10.956;2023-04-06T12:33:21;9.70;41.50
67901;DHT22;54700;51.796;10.956;2023-04-06T12:35:49;9.80;41.30
67901;DHT22;54700;51.796;10.956;2023-04-06T12:38:33;9.90;38.30
67901;DHT22;54700;51.796;10.956;2023-04-06T12:41:03;9.90;38.80
67901;DHT22;54700;51.796;10.956;2023-04-06T12:43:35;10.00;39.00
67901;DHT22;54700;51.796;10.956;2023-04-06T12:46:03;10.10;40.20
67901;DHT22;54700;51.796;10.956;2023-04-06T12:48:31;10.10;39.10
67901;DHT22;54700;51.796;10.956;2023-04-06T12:51:00;10.20;39.20
67901;DHT22;54700;51.796;10.956;2023-04-06T12:53:33;10.30;38.90
67901;DHT22;54700;51.796;10.956;2023-04-06T12:56:10;10.30;37.70
67901;DHT22;54700;51.796;10.956;2023-04-06T12:58:55;10.30;37.30
67901;DHT22;54700;51.796;10.956;2023-04-06T13:01:27;10.30;36.40
67901;DHT22;54700;51.796;10.956;2023-04-06T13:03:58;10.40;37.10
67901;DHT22;54700;51.796;10.956;2023-04-06T13:06:28;10.40;37.00
67901;DHT22;54700;51.796;10.956;2023-04-06T13:09:04;10.40;36.20
67901;DHT22;54700;51.796;10.956;2023-04-06T13:11:33;10.50;37.30
67901;DHT22;54700;51.796;10.956;2023-04-06T13:14:19;10.50;36.80
67901;DHT22;54700;51.796;10.956;2023-04-06T13:16:52;10.50;37.60
67901;DHT22;54700;51.796;10.956;2023-04-06T13:19:27;10.50;38.40
67901;DHT22;54700;51.796;10.956;2023-04-06T13:22:03;10.50;37.90
67901;DHT22;54700;51.796;10.956;2023-04-06T13:24:32;10.40;37.80
67901;DHT22;54700;51.796;10.956;2023-04-06T13:27:06;10.50;38.50
67901;DHT22;54700;51.796;10.956;2023-04-06T13:29:41;10.50;38.00
67901;DHT22;54700;51.796;10.956;2023-04-06T13:32:28;10.50;37.80
67901;DHT22;54700;51.796;10.956;2023-04-06T13:34:59;10.60;37.80
67901;DHT22;54700;51.796;10.956;2023-04-06T13:37:29;10.60;37.30
67901;DHT22;54700;51.796;10.956;2023-04-06T13:40:17;10.50;36.80
67901;DHT22;54700;51.796;10.956;2023-04-06T13:42:51;10.60;37.40
67901;DHT22;54700;51.796;10.956;2023-04-06T13:45:19;10.70;37.40
67901;DHT22;54700;51.796;10.956;2023-04-06T13:47:48;10.70;38.00
67901;DHT22;54700;51.796;10.956;2023-04-06T13:50:21;10.80;37.00
67901;DHT22;54700;51.796;10.956;2023-04-06T13:52:55;10.80;36.60
67901;DHT22;54700;51.796;10.956;2023-04-06T13:55:25;10.80;37.80
67901;DHT22;54700;51.796;10.956;2023-04-06T13:58:16;10.80;37.10
67901;DHT22;54700;51.796;10.956;2023-04-06T14:00:48;10.70;37.90
67901;DHT22;54700;51.796;10.956;2023-04-06T14:03:16;10.70;37.30
67901;DHT22;54700;51.796;10.956;2023-04-06T14:06:13;10.70;37.90
67901;DHT22;54700;51.796;10.956;2023-04-06T14:08:50;10.70;39.10
67901;DHT22;54700;51.796;10.956;2023-04-06T14:11:22;10.80;37.10
67901;DHT22;54700;51.796;10.956;2023-04-06T14:13:52;10.80;38.00
67901;DHT22;54700;51.796;10.956;2023-04-06T14:16:32;10.90;38.00
67901;DHT22;54700;51.796;10.956;2023-04-06T14:19:16;10.90;37.00
67901;DHT22;54700;51.796;10.956;2023-04-06T14:21:55;10.90;36.50
67901;DHT22;54700;51.796;10.956;2023-04-06T14:24:25;10.90;37.50
67901;DHT22;54700;51.796;10.956;2023-04-06T14:26:55;10.90;37.80
67901;DHT22;54700;51.796;10.956;2023-04-06T14:29:45;10.90;38.50
67901;DHT22;54700;51.796;10.956;2023-04-06T14:32:24;10.90;38.90
67901;DHT22;54700;51.796;10.956;2023-04-06T14:35:17;10.90;39.10
67901;DHT22;54700;51.796;10.956;2023-04-06T14:37:46;10.90;39.30
67901;DHT22;54700;51.796;10.956;2023-04-06T14:40:26;11.00;39.00
67901;DHT22;54700;51.796;10.956;2023-04-06T14:43:22;11.00;37.80
67901;DHT22;54700;51.796;10.956;2023-04-06T14:45:53;11.10;37.40
67901;DHT22;54700;51.796;10.956;2023-04-06T14:48:36;11.10;37.20
67901;DHT22;54700;51.796;10.956;2023-04-06T14:51:04;11.10;37.50
67901;DHT22;54700;51.796;10.956;2023-04-06T14:53:33;11.10;37.20
67901;DHT22;54700;51.796;10.956;2023-04-06T14:56:03;11.10;37.90
67901;DHT22;54700;51.796;10.956;2023-04-06T14:58:39;11.10;38.80
67901;DHT22;54700;51.796;10.956;2023-04-06T15:01:13;11.10;38.00
67901;DHT22;54700;51.796;10.956;2023-04-06T15:03:58;11.10;37.90
67901;DHT22;54700;51.796;10.956;2023-04-06T15:06:43;11.10;36.60
67901;DHT22;54700;51.796;10.956;2023-04-06T15:09:14;11.20;36.40
67901;DHT22;54700;51.796;10.956;2023-04-06T15:11:46;11.20;36.60
67901;DHT22;54700;51.796;10.956;2023-04-06T15:14:15;11.20;36.60
67901;DHT22;54700;51.796;10.956;2023-04-06T15:16:49;11.10;36.40
67901;DHT22;54700;51.796;10.956;2023-04-06T15:19:18;11.10;36.10
67901;DHT22;54700;51.796;10.956;2023-04-06T15:21:47;11.10;36.70
67901;DHT22;54700;51.796;10.956;2023-04-06T15:24:16;11.10;37.50
67901;DHT22;54700;51.796;10.956;2023-04-06T15:26:43;11.10;37.20
67901;DHT22;54700;51.796;10.956;2023-04-06T15:29:11;11.10;38.00
67901;DHT22;54700;51.796;10.956;2023-04-06T15:31:39;11.10;37.70
67901;DHT22;54700;51.796;10.956;2023-04-06T15:34:08;11.20;37.40
67901;DHT22;54700;51.796;10.956;2023-04-06T15:36:37;11.20;36.90
67901;DHT22;54700;51.796;10.956;2023-04-06T15:39:07;11.20;37.70
67901;DHT22;54700;51.796;10.956;2023-04-06T15:41:34;11.20;39.30
67901;DHT22;54700;51.796;10.956;2023-04-06T15:44:03;11.20;38.00
67901;DHT22;54700;51.796;10.956;2023-04-06T15:46:30;11.20;36.70
67901;DHT22;54700;51.796;10.956;2023-04-06T15:51:46;11.20;37.30
67901;DHT22;54700;51.796;10.956;2023-04-06T15:54:17;11.20;37.00
67901;DHT22;54700;51.796;10.956;2023-04-06T15:56:45;11.10;37.50
67901;DHT22;54700;51.796;10.956;2023-04-06T15:59:32;11.00;38.00
67901;DHT22;54700;51.796;10.956;2023-04-06T16:02:04;11.00;38.50
67901;DHT22;54700;51.796;10.956;2023-04-06T16:04:36;10.90;38.50
67901;DHT22;54700;51.796;10.956;2023-04-06T16:07:17;10.90;38.50
67901;DHT22;54700;51.796;10.956;2023-04-06T16:09:50;10.90;38.70
67901;DHT22;54700;51.796;10.956;2023-04-06T16:12:25;10.90;38.70
67901;DHT22;54700;51.796;10.956;2023-04-06T16:15:13;10.90;38.60
67901;DHT22;54700;51.796;10.956;2023-04-06T16:17:45;10.80;38.90
67901;DHT22;54700;51.796;10.956;2023-04-06T16:20:17;10.80;39.10
67901;DHT22;54700;51.796;10.956;2023-04-06T16:22:56;10.70;38.90
67901;DHT22;54700;51.796;10.956;2023-04-06T16:25:26;10.70;39.10
67901;DHT22;54700;51.796;10.956;2023-04-06T16:27:55;10.70;39.60
67901;DHT22;54700;51.796;10.956;2023-04-06T16:30:28;10.70;40.00
67901;DHT22;54700;51.796;10.956;2023-04-06T16:33:01;10.70;39.80
67901;DHT22;54700;51.796;10.956;2023-04-06T16:35:39;10.70;39.50
67901;DHT22;54700;51.796;10.956;2023-04-06T16:38:25;10.60;40.10
67901;DHT22;54700;51.796;10.956;2023-04-06T16:41:08;10.50;39.80
67901;DHT22;54700;51.796;10.956;2023-04-06T16:43:47;10.50;39.50
67901;DHT22;54700;51.796;10.956;2023-04-06T16:46:33;10.50;39.70
67901;DHT22;54700;51.796;10.956;2023-04-06T16:49:25;10.50;39.70
67901;DHT22;54700;51.796;10.956;2023-04-06T16:55:17;10.40;40.60
67901;DHT22;54700;51.796;10.956;2023-04-06T16:58:53;10.40;39.90
67901;DHT22;54700;51.796;10.956;2023-04-06T17:04:24;10.30;39.70
67901;DHT22;54700;51.796;10.956;2023-04-06T17:06:59;10.20;40.00